Search for airport 
image banner adimage banner adimage banner ad
image banner ad

32CL - Bob's Flying Service Inc

Located in Knights Landing, United States

ICAO - 32CL, IATA -

Data provided by Airmate  

General information

Coordinates: N38°49'60" W121°43'4"
Elevation is 40 feet MSL.
Magnetic variation is 16° East
View others Airports in California

Operational data

Special qualification required
Current time UTC:
Current local time:
Weather at : KSMF - Sacramento Intl ( 19 km )
METAR: KSMF 150853Z 14006KT 10SM CLR 16/10 A3001 RMK AO2 SLP163 T01610100 51008
TAF: KSMF 150532Z 1506/1606 18008KT P6SM SKC FM151200 15007KT P6SM SKC FM151800 33006KT P6SM SKC
View NOTAMs / SUP AIP / TFR affecting this airport [VIEW]
Communications frequencies: [VIEW]

Runways:

RWY identifierQFULength (ft)Width (ft)SurfaceLDA (ft)
N250050OTHER
S250050OTHER

Airport contact information

Address: Knights Landing United States

Satellite view of 32CL